La Puebla del Rio, Spain
Current Conditions -  °F | °C
As of 6:00 AM on Thursday 27 Nov 2014 (Local Time) from LEZL Reporting Station
Scattered Clouds Scattered Clouds  
Wind Chill: 54°   Ceiling: Unl
Heat Index: 54°   Visibility: 6mi
Dew Point: 52°   Wind: 3mph
Humidity: 94%   Direction: 100°E
Pressure: 29.59"   Gusts: NA
Location:  37.27°N, 6.06°W
Report Text: LEZL 270500Z 10003KT 060V140 9999 FEW012 SCT040 12/11 Q1002 NOSIG
Loading
Personal Weather Stations






























Interactive Weather Map New forecast layout! Learn more

10-Day Weather Forecast

Advertisements
Track Severe Weather on mobile